createdAt,value
2018-06-18T00:01:08.884Z,17.88
2018-06-18T00:03:38.188Z,17.93
2018-06-18T00:06:07.514Z,17.68
2018-06-18T00:08:36.849Z,17.80
2018-06-18T00:11:06.212Z,17.74
2018-06-18T00:13:35.574Z,17.67
2018-06-18T00:16:05.544Z,17.70
2018-06-18T00:18:34.940Z,17.40
2018-06-18T00:21:04.334Z,17.60
2018-06-18T00:23:33.644Z,17.99
2018-06-18T00:26:03.190Z,17.33
2018-06-18T00:28:32.551Z,17.36
2018-06-18T00:31:01.820Z,17.35
2018-06-18T00:33:31.193Z,17.93
2018-06-18T00:36:00.439Z,17.76
2018-06-18T00:38:29.712Z,17.90
2018-06-18T00:40:59.046Z,17.99
2018-06-18T00:43:28.414Z,17.96
2018-06-18T00:45:57.827Z,18.09
2018-06-18T00:48:27.090Z,18.10
2018-06-18T00:50:56.428Z,18.38
2018-06-18T00:53:25.736Z,18.36
2018-06-18T00:56:10.184Z,18.02
2018-06-18T00:58:39.980Z,18.20
2018-06-18T01:01:09.712Z,18.27
2018-06-18T01:03:39.021Z,18.12
2018-06-18T01:06:08.544Z,18.20
2018-06-18T01:08:37.935Z,18.38
2018-06-18T01:11:07.235Z,18.14
2018-06-18T01:13:36.539Z,18.33
2018-06-18T01:16:05.913Z,18.33
2018-06-18T01:18:35.236Z,18.15
2018-06-18T01:21:04.543Z,18.41
2018-06-18T01:25:40.237Z,18.41
2018-06-18T01:28:09.529Z,18.43
2018-06-18T01:30:38.841Z,18.79
2018-06-18T01:33:08.131Z,18.43
2018-06-18T01:35:37.388Z,18.69
2018-06-18T01:38:06.701Z,18.85
2018-06-18T01:40:36.024Z,18.36
2018-06-18T01:43:05.717Z,18.84
2018-06-18T01:45:35.011Z,18.58
2018-06-18T01:48:04.284Z,18.54
2018-06-18T01:50:33.541Z,18.56
2018-06-18T01:53:02.861Z,18.42
2018-06-18T01:55:32.148Z,18.55
2018-06-18T01:58:01.538Z,18.64
2018-06-18T02:00:30.794Z,18.31
2018-06-18T02:03:00.068Z,18.48
2018-06-18T02:05:29.477Z,18.30
2018-06-18T02:07:58.746Z,18.17
2018-06-18T02:10:28.187Z,18.29
2018-06-18T02:12:57.520Z,17.86
2018-06-18T02:15:26.824Z,17.77
2018-06-18T02:17:56.155Z,17.87
2018-06-18T02:20:25.596Z,17.56
2018-06-18T02:22:54.945Z,17.56
2018-06-18T02:25:24.404Z,17.69
2018-06-18T02:27:59.153Z,17.67
2018-06-18T02:30:33.724Z,17.91
2018-06-18T02:33:08.218Z,17.79
2018-06-18T02:35:42.656Z,17.27
2018-06-18T02:38:17.161Z,17.22
2018-06-18T02:40:47.472Z,17.53
2018-06-18T02:43:17.935Z,17.81
2018-06-18T02:45:47.408Z,17.33
2018-06-18T02:48:16.668Z,17.35
2018-06-18T02:50:45.933Z,17.36
2018-06-18T02:53:15.308Z,16.86
2018-06-18T02:55:47.401Z,16.76
2018-06-18T02:58:16.723Z,17.10
2018-06-18T03:00:46.140Z,17.37
2018-06-18T03:03:15.408Z,17.37
2018-06-18T03:05:44.686Z,17.53
2018-06-18T03:08:16.854Z,17.42
2018-06-18T03:10:46.138Z,17.94
2018-06-18T03:13:15.483Z,18.08
2018-06-18T03:15:44.738Z,17.64
2018-06-18T03:18:19.447Z,17.44
2018-06-18T03:20:54.017Z,17.66
2018-06-18T03:23:28.448Z,17.55
2018-06-18T03:26:03.676Z,17.63
2018-06-18T03:29:40.968Z,17.71
2018-06-18T03:32:12.628Z,18.00
2018-06-18T03:34:41.964Z,17.80
2018-06-18T03:37:13.304Z,18.50
2018-06-18T03:39:42.663Z,18.80
2018-06-18T03:42:11.945Z,18.53
2018-06-18T03:44:47.189Z,18.15
2018-06-18T03:47:23.824Z,17.54
2018-06-18T03:49:53.118Z,17.86
2018-06-18T03:52:22.439Z,17.65
2018-06-18T03:54:53.890Z,17.67
2018-06-18T03:57:23.286Z,17.75
2018-06-18T03:59:52.584Z,18.02
2018-06-18T04:02:35.016Z,17.46
2018-06-18T04:05:09.799Z,18.32
2018-06-18T04:07:44.392Z,17.58
2018-06-18T04:10:19.177Z,17.60
2018-06-18T04:12:48.505Z,17.82
2018-06-18T04:15:17.776Z,17.89
2018-06-18T04:17:47.093Z,17.93
2018-06-18T04:20:16.364Z,18.09
2018-06-18T04:22:45.682Z,18.10
2018-06-18T04:25:14.977Z,17.96
2018-06-18T04:27:44.394Z,17.69
2018-06-18T04:30:13.731Z,17.92
2018-06-18T04:32:43.453Z,17.50
2018-06-18T04:35:12.935Z,17.53
2018-06-18T04:37:42.291Z,17.40
2018-06-18T04:40:11.523Z,17.70
2018-06-18T04:42:46.006Z,17.84
2018-06-18T04:45:20.580Z,18.24
2018-06-18T04:47:55.067Z,18.11
2018-06-18T04:50:29.632Z,18.46
2018-06-18T04:52:58.933Z,17.99
2018-06-18T04:55:28.237Z,17.97
2018-06-18T04:57:57.564Z,18.11
2018-06-18T05:00:37.351Z,18.34
2018-06-18T05:03:06.804Z,18.47
2018-06-18T05:05:36.158Z,18.84
2018-06-18T05:10:48.598Z,18.67
2018-06-18T05:13:17.869Z,17.34
2018-06-18T05:15:47.244Z,17.25
2018-06-18T05:18:16.574Z,17.02
2018-06-18T05:20:46.089Z,16.96
2018-06-18T05:23:17.715Z,17.20
2018-06-18T05:25:51.249Z,17.02
2018-06-18T05:28:20.620Z,18.02
2018-06-18T05:30:49.979Z,17.56
2018-06-18T05:33:19.323Z,17.78
2018-06-18T05:35:48.721Z,18.64
2018-06-18T05:38:28.741Z,18.15
2018-06-18T05:41:00.275Z,17.29
2018-06-18T05:43:31.519Z,17.65
2018-06-18T05:46:01.994Z,17.83
2018-06-18T05:48:34.700Z,17.52
2018-06-18T05:51:09.107Z,17.97
2018-06-18T05:53:40.813Z,18.13
2018-06-18T05:56:10.198Z,18.29
2018-06-18T05:58:39.579Z,18.20
2018-06-18T06:01:09.067Z,18.09
2018-06-18T06:03:38.518Z,17.57
2018-06-18T06:06:07.826Z,17.82
2018-06-18T06:08:37.119Z,18.31
2018-06-18T06:11:06.953Z,19.00
2018-06-18T06:13:36.264Z,18.50
2018-06-18T06:16:05.645Z,18.44
2018-06-18T06:18:34.976Z,18.46
2018-06-18T06:21:07.149Z,18.31
2018-06-18T06:23:36.451Z,18.59
2018-06-18T06:26:06.033Z,18.61
2018-06-18T06:28:35.374Z,18.79
2018-06-18T06:31:04.909Z,18.88
2018-06-18T06:33:34.188Z,19.14
2018-06-18T06:36:04.141Z,18.62
2018-06-18T06:38:33.462Z,19.00
2018-06-18T06:41:02.837Z,19.15
2018-06-18T06:43:32.130Z,19.01
2018-06-18T06:46:01.434Z,19.17
2018-06-18T06:48:30.736Z,18.83
2018-06-18T06:51:00.119Z,19.05
2018-06-18T06:53:29.415Z,19.42
2018-06-18T06:55:58.734Z,19.24
2018-06-18T06:58:28.017Z,19.52
2018-06-18T07:00:57.501Z,19.63
2018-06-18T07:03:26.888Z,19.72
2018-06-18T07:05:56.287Z,19.76
2018-06-18T07:08:25.575Z,20.27
2018-06-18T07:10:54.934Z,20.24
2018-06-18T07:13:24.379Z,20.29
2018-06-18T07:15:53.676Z,19.88
2018-06-18T07:18:23.116Z,20.87
2018-06-18T07:20:53.468Z,21.37
2018-06-18T07:23:22.824Z,20.91
2018-06-18T07:25:52.168Z,21.09
2018-06-18T07:28:21.545Z,21.12
2018-06-18T07:30:50.963Z,21.21
2018-06-18T07:33:20.353Z,20.80
2018-06-18T07:35:49.696Z,21.18
2018-06-18T07:38:19.034Z,20.96
2018-06-18T07:40:48.359Z,21.07
2018-06-18T07:43:17.734Z,20.68
2018-06-18T07:45:47.125Z,21.78
2018-06-18T07:48:16.489Z,23.28
2018-06-18T07:50:45.835Z,23.89
2018-06-18T07:53:15.281Z,23.47
2018-06-18T07:55:44.596Z,22.85
2018-06-18T07:58:13.933Z,23.11
2018-06-18T08:00:43.260Z,22.56
2018-06-18T08:03:12.711Z,22.03
2018-06-18T08:05:42.126Z,21.22
2018-06-18T08:08:11.469Z,22.08
2018-06-18T08:10:40.869Z,21.69
2018-06-18T08:13:10.211Z,21.28
2018-06-18T08:15:39.544Z,21.30
2018-06-18T08:18:08.952Z,21.09
2018-06-18T08:20:38.296Z,21.89
2018-06-18T08:23:07.710Z,22.81
2018-06-18T08:25:37.030Z,23.03
2018-06-18T08:28:06.424Z,23.25
2018-06-18T08:30:35.880Z,23.51
2018-06-18T08:33:05.575Z,24.20
2018-06-18T08:35:34.913Z,23.90
2018-06-18T08:38:04.253Z,24.58
2018-06-18T08:40:33.555Z,25.89
2018-06-18T08:43:02.947Z,26.15
2018-06-18T08:45:32.280Z,27.16
2018-06-18T08:48:01.665Z,26.85
2018-06-18T08:50:36.264Z,25.14
2018-06-18T08:53:11.022Z,25.35
2018-06-18T08:55:45.485Z,25.27
2018-06-18T08:58:20.140Z,24.60
2018-06-18T09:00:54.638Z,24.03
2018-06-18T09:03:26.924Z,23.37
2018-06-18T09:06:01.533Z,23.58
2018-06-18T09:08:39.890Z,24.41
2018-06-18T09:11:09.209Z,23.79
2018-06-18T09:13:38.568Z,23.51
2018-06-18T09:16:07.971Z,23.38
2018-06-18T09:18:37.241Z,23.89
2018-06-18T09:21:06.524Z,24.29
2018-06-18T09:23:35.864Z,24.23
2018-06-18T09:26:05.320Z,25.01
2018-06-18T09:28:34.606Z,25.26
2018-06-18T09:31:03.874Z,25.23
2018-06-18T09:33:33.180Z,25.43
2018-06-18T09:36:02.525Z,25.66
2018-06-18T09:38:31.949Z,25.52
2018-06-18T09:41:01.232Z,25.73
2018-06-18T09:43:30.520Z,25.41
2018-06-18T09:45:59.822Z,25.83
2018-06-18T09:48:34.291Z,26.04
2018-06-18T09:51:08.825Z,26.72
2018-06-18T09:53:43.268Z,27.06
2018-06-18T09:56:17.765Z,26.15
2018-06-18T09:58:52.236Z,25.61
2018-06-18T10:01:26.815Z,24.82
2018-06-18T10:03:56.169Z,23.76
2018-06-18T10:06:25.972Z,24.49
2018-06-18T10:08:55.345Z,24.27
2018-06-18T10:11:24.663Z,23.37
2018-06-18T10:13:54.902Z,24.04
2018-06-18T10:16:24.176Z,25.26
2018-06-18T10:18:53.469Z,25.28
2018-06-18T10:21:22.757Z,25.97
2018-06-18T10:23:52.113Z,25.27
2018-06-18T10:26:21.379Z,25.14
2018-06-18T10:28:50.703Z,24.35
2018-06-18T10:31:20.249Z,23.97
2018-06-18T10:33:54.867Z,23.76
2018-06-18T10:36:29.797Z,24.45
2018-06-18T10:39:04.378Z,24.90
2018-06-18T10:41:39.017Z,26.35
2018-06-18T10:44:08.397Z,25.44
2018-06-18T10:46:37.772Z,24.72
2018-06-18T10:49:07.126Z,23.69
2018-06-18T10:51:36.504Z,23.68
2018-06-18T10:54:05.873Z,23.20
2018-06-18T10:56:35.363Z,23.28
2018-06-18T10:59:04.721Z,22.64
2018-06-18T11:01:34.583Z,23.03
2018-06-18T11:04:04.194Z,22.72
2018-06-18T11:06:35.621Z,23.38
2018-06-18T11:09:08.824Z,24.36
2018-06-18T11:11:38.173Z,24.43
2018-06-18T11:14:07.590Z,24.97
2018-06-18T11:16:37.108Z,24.66
2018-06-18T11:19:12.355Z,23.95
2018-06-18T11:22:16.842Z,23.46
2018-06-18T11:26:52.549Z,22.67
2018-06-18T11:29:21.954Z,23.01
2018-06-18T11:31:51.337Z,24.06
2018-06-18T11:34:20.786Z,24.12
2018-06-18T11:36:50.179Z,24.03
2018-06-18T11:39:19.572Z,24.47
2018-06-18T11:41:48.928Z,24.93
2018-06-18T11:44:18.177Z,24.24
2018-06-18T11:46:47.476Z,24.44
2018-06-18T11:49:16.782Z,25.04
2018-06-18T11:51:46.142Z,25.20
2018-06-18T11:54:15.483Z,25.30
2018-06-18T11:56:44.986Z,25.25
2018-06-18T11:59:19.444Z,25.38
2018-06-18T12:01:53.992Z,24.83
2018-06-18T12:04:28.477Z,24.45
2018-06-18T12:07:03.096Z,24.39
2018-06-18T12:09:33.984Z,23.18
2018-06-18T12:12:03.355Z,23.96
2018-06-18T12:14:32.656Z,23.67
2018-06-18T12:17:02.039Z,23.66
2018-06-18T12:19:31.369Z,23.30
2018-06-18T12:22:01.831Z,23.55
2018-06-18T12:24:31.186Z,24.06
2018-06-18T12:27:00.961Z,24.00
2018-06-18T12:29:37.046Z,24.80
2018-06-18T12:32:06.398Z,24.62
2018-06-18T12:34:35.779Z,25.51
2018-06-18T12:37:05.157Z,24.77
2018-06-18T12:39:34.579Z,25.71
2018-06-18T12:42:05.454Z,25.04
2018-06-18T12:44:42.054Z,25.74
2018-06-18T12:47:16.544Z,26.40
2018-06-18T12:49:51.212Z,26.05
2018-06-18T12:52:26.340Z,25.06
2018-06-18T12:55:01.170Z,24.93
2018-06-18T12:57:30.532Z,25.43
2018-06-18T12:59:59.910Z,25.70
2018-06-18T13:02:33.228Z,25.75
2018-06-18T13:05:02.666Z,25.33
2018-06-18T13:07:31.960Z,24.96
2018-06-18T13:10:01.424Z,24.48
2018-06-18T13:12:30.771Z,24.59
2018-06-18T13:15:00.285Z,24.35
2018-06-18T13:17:29.634Z,24.47
2018-06-18T13:19:59.180Z,24.23
2018-06-18T13:22:28.598Z,24.69
2018-06-18T13:24:57.964Z,24.56
2018-06-18T13:27:32.483Z,24.41
2018-06-18T13:30:02.016Z,24.82
2018-06-18T13:32:31.380Z,25.75
2018-06-18T13:35:00.745Z,25.27
2018-06-18T13:37:36.210Z,24.60
2018-06-18T13:40:10.647Z,23.96
2018-06-18T13:42:45.154Z,24.12
2018-06-18T13:45:19.833Z,24.39
2018-06-18T13:47:54.416Z,24.18
2018-06-18T13:50:23.705Z,24.16
2018-06-18T13:52:53.138Z,24.44
2018-06-18T13:55:28.070Z,23.93
2018-06-18T13:57:57.488Z,24.20
2018-06-18T14:00:26.874Z,24.15
2018-06-18T14:02:56.255Z,24.39
2018-06-18T14:05:26.258Z,23.71
2018-06-18T14:07:55.573Z,23.88
2018-06-18T14:10:24.880Z,23.73
2018-06-18T14:12:54.265Z,24.28
2018-06-18T14:15:23.571Z,23.83
2018-06-18T14:17:53.015Z,24.34
2018-06-18T14:20:22.999Z,25.18
2018-06-18T14:22:52.648Z,25.97
2018-06-18T14:25:22.031Z,25.44
2018-06-18T14:27:51.326Z,24.63
2018-06-18T14:30:25.834Z,24.34
2018-06-18T14:33:00.328Z,24.66
2018-06-18T14:35:34.929Z,24.21
2018-06-18T14:38:09.492Z,24.09
2018-06-18T14:40:38.817Z,24.21
2018-06-18T14:43:08.235Z,24.84
2018-06-18T14:45:37.665Z,25.35
2018-06-18T14:48:07.017Z,24.72
2018-06-18T14:50:36.344Z,25.05
2018-06-18T14:53:05.726Z,25.11
2018-06-18T14:55:35.038Z,24.64
2018-06-18T14:58:05.437Z,24.69
2018-06-18T15:00:35.391Z,24.25
2018-06-18T15:03:05.156Z,24.48
2018-06-18T15:05:39.264Z,23.76
2018-06-18T15:08:08.657Z,24.72
2018-06-18T15:10:43.094Z,25.00
2018-06-18T15:13:14.181Z,24.41
2018-06-18T15:15:48.845Z,24.43
2018-06-18T15:18:18.193Z,24.28
2018-06-18T15:20:47.539Z,24.64
2018-06-18T15:23:16.921Z,24.67
2018-06-18T15:25:48.135Z,24.61
2018-06-18T15:28:17.434Z,24.61
2018-06-18T15:30:46.784Z,24.58
2018-06-18T15:33:16.061Z,24.68
2018-06-18T15:35:45.345Z,24.39
2018-06-18T15:38:14.669Z,23.44
2018-06-18T15:40:44.039Z,23.25
2018-06-18T15:43:13.379Z,23.30
2018-06-18T15:45:42.699Z,23.08
2018-06-18T15:48:11.972Z,23.81
2018-06-18T15:50:41.261Z,24.34
2018-06-18T15:53:10.592Z,23.92
2018-06-18T15:55:39.897Z,24.32
2018-06-18T15:58:09.258Z,24.41
2018-06-18T16:00:38.669Z,24.94
2018-06-18T16:03:07.975Z,24.55
2018-06-18T16:05:37.344Z,24.34
2018-06-18T16:08:06.621Z,23.90
2018-06-18T16:10:35.953Z,23.92
2018-06-18T16:13:05.317Z,23.05
2018-06-18T16:15:34.660Z,23.66
2018-06-18T16:18:04.024Z,23.66
2018-06-18T16:20:33.340Z,23.75
2018-06-18T16:23:02.657Z,23.86
2018-06-18T16:25:31.928Z,23.35
2018-06-18T16:28:01.482Z,23.48
2018-06-18T16:30:30.784Z,23.33
2018-06-18T16:33:00.132Z,23.46
2018-06-18T16:35:29.417Z,23.73
2018-06-18T16:37:58.698Z,23.90
2018-06-18T16:40:28.034Z,23.94
2018-06-18T16:42:57.444Z,24.18
2018-06-18T16:45:26.803Z,24.00
2018-06-18T16:47:56.154Z,24.21
2018-06-18T16:50:25.432Z,24.12
2018-06-18T16:52:55.732Z,23.54
2018-06-18T16:55:31.600Z,23.42
2018-06-18T16:58:00.958Z,23.90
2018-06-18T17:00:30.348Z,23.51
2018-06-18T17:02:59.608Z,23.53
2018-06-18T17:05:28.895Z,23.17
2018-06-18T17:07:58.166Z,23.14
2018-06-18T17:10:27.812Z,23.12
2018-06-18T17:12:57.145Z,23.10
2018-06-18T17:15:26.408Z,22.92
2018-06-18T17:17:55.699Z,22.70
2018-06-18T17:20:25.125Z,22.43
2018-06-18T17:22:54.649Z,22.80
2018-06-18T17:25:24.185Z,22.45
2018-06-18T17:27:53.503Z,22.59
2018-06-18T17:30:23.091Z,22.61
2018-06-18T17:32:52.426Z,22.71
2018-06-18T17:35:21.846Z,22.62
2018-06-18T17:37:51.390Z,22.37
2018-06-18T17:40:20.820Z,22.42
2018-06-18T17:42:50.120Z,22.57
2018-06-18T17:45:19.763Z,22.70
2018-06-18T17:47:49.191Z,23.23
2018-06-18T17:50:18.539Z,22.71
2018-06-18T17:52:48.029Z,22.18
2018-06-18T17:55:17.382Z,22.33
2018-06-18T17:57:46.650Z,22.24
2018-06-18T18:00:16.009Z,22.38
2018-06-18T18:02:45.703Z,22.71
2018-06-18T18:05:14.984Z,22.67
2018-06-18T18:07:44.270Z,22.98
2018-06-18T18:10:14.009Z,22.83
2018-06-18T18:12:43.283Z,22.40
2018-06-18T18:15:12.628Z,22.34
2018-06-18T18:17:41.992Z,22.14
2018-06-18T18:20:11.304Z,22.11
2018-06-18T18:22:40.593Z,22.27
2018-06-18T18:25:09.999Z,22.35
2018-06-18T18:27:39.340Z,22.24
2018-06-18T18:30:08.697Z,22.19
2018-06-18T18:32:38.020Z,22.46
2018-06-18T18:35:07.390Z,22.94
2018-06-18T18:37:36.672Z,23.50
2018-06-18T18:40:06.031Z,23.58
2018-06-18T18:42:35.313Z,22.44
2018-06-18T18:45:04.773Z,22.40
2018-06-18T18:47:34.056Z,22.27
2018-06-18T18:50:03.338Z,22.66
2018-06-18T18:52:32.621Z,22.16
2018-06-18T18:55:40.245Z,21.77
2018-06-18T18:58:21.871Z,22.00
2018-06-18T19:00:51.635Z,21.97
2018-06-18T19:03:23.828Z,22.20
2018-06-18T19:05:53.804Z,22.23
2018-06-18T19:08:26.307Z,22.56
2018-06-18T19:10:56.110Z,22.06
2018-06-18T19:13:28.573Z,22.10
2018-06-18T19:15:58.369Z,22.20
2018-06-18T19:18:27.835Z,21.89
2018-06-18T19:21:02.497Z,22.05
2018-06-18T19:23:31.837Z,21.92
2018-06-18T19:26:01.250Z,21.95
2018-06-18T19:28:30.788Z,22.20
2018-06-18T19:31:03.526Z,22.17
2018-06-18T19:33:51.725Z,22.12
2018-06-18T19:36:21.231Z,22.27
2018-06-18T19:38:50.557Z,22.51
2018-06-18T19:41:20.289Z,22.15
2018-06-18T19:43:50.148Z,22.46
2018-06-18T19:46:22.755Z,22.61
2018-06-18T19:49:00.191Z,22.62
2018-06-18T19:51:29.548Z,22.58
2018-06-18T19:53:59.064Z,22.33
2018-06-18T19:56:28.517Z,22.04
2018-06-18T19:58:57.758Z,22.03
2018-06-18T20:01:27.074Z,22.15
2018-06-18T20:03:56.439Z,21.64
2018-06-18T20:06:25.921Z,21.67
2018-06-18T20:08:55.249Z,21.60
2018-06-18T20:11:24.804Z,21.77
2018-06-18T20:13:54.118Z,21.64
2018-06-18T20:16:23.481Z,21.56
2018-06-18T20:18:52.853Z,21.81
2018-06-18T20:21:22.243Z,22.05
2018-06-18T20:23:51.523Z,21.74
2018-06-18T20:26:20.901Z,21.76
2018-06-18T20:28:50.202Z,21.61
2018-06-18T20:31:19.593Z,21.16
2018-06-18T20:33:57.132Z,21.88
2018-06-18T20:36:27.240Z,22.11
2018-06-18T20:38:56.532Z,21.39
2018-06-18T20:41:26.009Z,21.55
2018-06-18T20:44:04.526Z,20.55
2018-06-18T20:46:33.978Z,21.17
2018-06-18T20:49:03.272Z,21.01
2018-06-18T20:51:32.561Z,20.57
2018-06-18T20:54:01.848Z,20.66
2018-06-18T20:56:31.347Z,20.36
2018-06-18T20:59:01.877Z,21.35
2018-06-18T21:01:31.269Z,21.31
2018-06-18T21:04:00.567Z,21.62
2018-06-18T21:06:29.972Z,21.64
2018-06-18T21:08:59.326Z,21.83
2018-06-18T21:11:28.712Z,21.11
2018-06-18T21:13:58.164Z,21.09
2018-06-18T21:16:27.550Z,20.77
2018-06-18T21:18:56.863Z,21.05
2018-06-18T21:21:26.214Z,21.58
2018-06-18T21:23:55.589Z,21.94
2018-06-18T21:26:24.920Z,21.99
2018-06-18T21:28:54.314Z,21.87
2018-06-18T21:31:23.756Z,21.17
2018-06-18T21:33:53.188Z,20.68
2018-06-18T21:36:22.570Z,21.35
2018-06-18T21:38:51.899Z,21.61
2018-06-18T21:41:21.244Z,21.45
2018-06-18T21:43:50.702Z,21.76
2018-06-18T21:46:20.038Z,21.33
2018-06-18T21:48:49.351Z,21.35
2018-06-18T21:51:18.674Z,21.66
2018-06-18T21:53:48.072Z,21.40
2018-06-18T21:56:18.428Z,20.81
2018-06-18T21:58:47.764Z,20.92
2018-06-18T22:01:27.019Z,20.96
2018-06-18T22:03:56.501Z,21.49
2018-06-18T22:06:25.873Z,21.95
2018-06-18T22:08:55.202Z,21.59
2018-06-18T22:11:24.658Z,21.80
2018-06-18T22:13:54.000Z,22.00
2018-06-18T22:16:23.356Z,21.95
2018-06-18T22:18:52.668Z,21.34
2018-06-18T22:21:22.052Z,21.13
2018-06-18T22:23:51.400Z,20.74
2018-06-18T22:26:20.779Z,20.96
2018-06-18T22:28:50.098Z,21.17
2018-06-18T22:31:19.473Z,21.17
2018-06-18T22:33:48.861Z,20.82
2018-06-18T22:36:18.264Z,21.00
2018-06-18T22:38:47.580Z,20.76
2018-06-18T22:41:16.873Z,20.72
2018-06-18T22:43:46.153Z,21.36
2018-06-18T22:46:15.523Z,21.32
2018-06-18T22:48:44.888Z,21.40
2018-06-18T22:51:14.238Z,21.11
2018-06-18T22:53:43.532Z,21.11
2018-06-18T22:56:12.863Z,20.79
2018-06-18T22:58:42.196Z,20.63
2018-06-18T23:01:11.485Z,20.21
2018-06-18T23:03:40.856Z,20.95
2018-06-18T23:06:10.134Z,20.88
2018-06-18T23:08:39.437Z,21.20
2018-06-18T23:11:08.729Z,21.03
2018-06-18T23:13:38.615Z,21.32
2018-06-18T23:16:08.848Z,22.06
2018-06-18T23:18:38.124Z,21.41
2018-06-18T23:21:07.609Z,21.37
2018-06-18T23:23:36.893Z,21.67
2018-06-18T23:26:06.188Z,20.90
2018-06-18T23:28:55.406Z,20.56
2018-06-18T23:31:24.692Z,21.05
2018-06-18T23:33:54.033Z,21.08
2018-06-18T23:36:23.379Z,21.76
2018-06-18T23:38:52.764Z,21.02
2018-06-18T23:41:23.032Z,21.24
2018-06-18T23:43:52.392Z,20.92
2018-06-18T23:46:21.762Z,20.74
2018-06-18T23:48:51.101Z,20.93
2018-06-18T23:51:20.414Z,21.37
2018-06-18T23:53:49.692Z,21.44
2018-06-18T23:56:19.012Z,21.49
2018-06-18T23:58:48.380Z,21.68
